Time;durP1;ratioP1;P1;durP2;ratioP2;P2;SDS_P1;SDS_P2;PMS_P1;PMS_P2;Temp;Humidity;BMP_temperature;BMP_pressure;BME280_temperature;BME280_humidity;BME280_pressure;Samples;Min_cycle;Max_cycle;Signal;HPM_P1;HPM_P2
2021/06/07 00:00:35;;;;;;;18.40;10.27;;;;;;;;;;4972160;28;20053;-83
2021/06/07 00:03:01;;;;;;;16.95;10.25;;;;;;;;;;4987697;28;20031;-83
2021/06/07 00:05:27;;;;;;;23.48;11.88;;;;;;;;;;4988671;28;20041;-83
2021/06/07 00:07:53;;;;;;;17.33;10.10;;;;;;;;;;4988452;28;20428;-86
2021/06/07 00:10:20;;;;;;;15.90;10.57;;;17.30;99.90;;;;;;4984561;28;20034;-84
2021/06/07 00:12:46;;;;;;;16.45;10.52;;;;;;;;;;4980284;28;20037;-82
2021/06/07 00:15:14;;;;;;;16.10;11.00;;;17.20;99.90;;;;;;4985540;28;20066;-83
2021/06/07 00:17:43;;;;;;;17.90;11.27;;;;;;;;;;4986501;28;20034;-81
2021/06/07 00:20:11;;;;;;;17.83;11.30;;;17.20;99.90;;;;;;4980086;28;20035;-82
2021/06/07 00:22:37;;;;;;;17.35;10.45;;;;;;;;;;4986871;28;20033;-79
2021/06/07 00:25:08;;;;;;;18.15;10.18;;;17.10;99.90;;;;;;4983723;28;20050;-83
2021/06/07 00:27:34;;;;;;;17.25;11.23;;;;;;;;;;4981066;28;20058;-81
2021/06/07 00:30:00;;;;;;;19.30;11.20;;;;;;;;;;4980403;28;20097;-81
2021/06/07 00:32:26;;;;;;;18.15;10.43;;;;;;;;;;4983760;28;20041;-82
2021/06/07 00:34:53;;;;;;;18.60;11.23;;;;;;;;;;4986134;28;22210;-85
2021/06/07 00:37:19;;;;;;;18.25;11.00;;;;;;;;;;5002722;28;20018;-83
2021/06/07 00:39:45;;;;;;;18.08;11.70;;;;;;;;;;4983425;28;20037;-82
2021/06/07 00:42:12;;;;;;;19.90;11.13;;;;;;;;;;4985412;28;20072;-82
2021/06/07 00:44:40;;;;;;;18.83;10.82;;;;;;;;;;4985699;28;20027;-82
2021/06/07 00:47:06;;;;;;;19.05;10.80;;;;;;;;;;4984318;28;20497;-82
2021/06/07 00:49:34;;;;;;;18.25;10.48;;;;;;;;;;4985953;28;20037;-83
2021/06/07 00:52:00;;;;;;;18.33;11.23;;;;;;;;;;4987762;28;20026;-83
2021/06/07 00:54:26;;;;;;;19.45;11.88;;;;;;;;;;4985920;28;20038;-81
2021/06/07 00:56:52;;;;;;;19.15;11.43;;;;;;;;;;4990814;28;20030;-85
2021/06/07 00:59:18;;;;;;;21.13;11.98;;;;;;;;;;4989809;28;20031;-84
2021/06/07 01:01:44;;;;;;;20.13;12.30;;;;;;;;;;4984343;28;20050;-83
2021/06/07 01:04:11;;;;;;;23.13;12.77;;;;;;;;;;4984043;28;20062;-85
2021/06/07 01:06:37;;;;;;;21.23;11.82;;;;;;;;;;4985094;28;20026;-85
2021/06/07 01:09:04;;;;;;;19.92;11.93;;;;;;;;;;4983568;28;20041;-85
2021/06/07 01:11:30;;;;;;;21.83;12.52;;;;;;;;;;4985080;28;20073;-85
2021/06/07 01:13:56;;;;;;;18.73;11.45;;;;;;;;;;4983157;28;20054;-84
2021/06/07 01:16:22;;;;;;;20.58;12.55;;;;;;;;;;4985156;28;20034;-81
2021/06/07 01:18:48;;;;;;;19.60;12.23;;;17.00;99.90;;;;;;4984286;28;20068;-85
2021/06/07 01:21:17;;;;;;;21.92;12.32;;;17.00;99.90;;;;;;4984294;28;20086;-83
2021/06/07 01:23:45;;;;;;;22.38;12.77;;;17.00;99.90;;;;;;4988580;28;20022;-81
2021/06/07 01:26:12;;;;;;;22.70;12.45;;;17.00;99.90;;;;;;4989284;28;20417;-85
2021/06/07 01:28:38;;;;;;;25.52;14.02;;;;;;;;;;4988931;28;20493;-82
2021/06/07 01:31:05;;;;;;;24.27;13.40;;;;;;;;;;4984476;28;20129;-82
2021/06/07 01:33:31;;;;;;;21.52;13.50;;;;;;;;;;4989755;28;20152;-82
2021/06/07 01:36:01;;;;;;;23.33;14.52;;;17.00;99.90;;;;;;4985100;28;20026;-85
2021/06/07 01:38:27;;;;;;;18.70;11.68;;;16.90;99.90;;;;;;5005671;28;20023;-83
2021/06/07 01:40:56;;;;;;;21.08;12.70;;;17.00;99.90;;;;;;4986570;28;20035;-83
2021/06/07 01:43:23;;;;;;;22.13;12.48;;;;;;;;;;5004536;28;20022;-85
2021/06/07 01:45:50;;;;;;;21.80;13.45;;;17.00;99.90;;;;;;4986276;28;20018;-82
2021/06/07 01:48:16;;;;;;;22.60;14.40;;;;;;;;;;4986348;28;21105;-83
2021/06/07 01:50:43;;;;;;;20.38;12.40;;;;;;;;;;4990453;28;20408;-82
2021/06/07 01:53:09;;;;;;;23.33;13.57;;;;;;;;;;4987688;28;20046;-81
2021/06/07 01:55:35;;;;;;;20.92;13.05;;;;;;;;;;4993891;28;20034;-85
2021/06/07 01:58:02;;;;;;;23.50;13.18;;;;;;;;;;4988163;28;20042;-81
2021/06/07 02:00:29;;;;;;;23.80;13.07;;;17.00;99.90;;;;;;4988475;28;20071;-81
2021/06/07 02:02:55;;;;;;;25.40;13.68;;;;;;;;;;4987388;28;20027;-80
2021/06/07 02:05:24;;;;;;;25.75;13.10;;;17.00;99.90;;;;;;4991366;28;20700;-81
2021/06/07 02:07:57;;;;;;;25.45;14.20;;;;;;;;;;4986664;28;20052;-84
2021/06/07 02:10:26;;;;;;;23.88;13.50;;;17.00;99.90;;;;;;4989008;28;20034;-84
2021/06/07 02:12:52;;;;;;;24.90;14.48;;;;;;;;;;4989508;28;20105;-82
2021/06/07 02:15:18;;;;;;;23.98;14.23;;;;;;;;;;4986430;28;20080;-82
2021/06/07 02:17:44;;;;;;;22.13;14.20;;;;;;;;;;4991874;28;20504;-83
2021/06/07 02:20:13;;;;;;;22.85;14.30;;;16.90;99.90;;;;;;4984699;28;20034;-84
2021/06/07 02:22:42;;;;;;;24.45;14.15;;;16.90;99.90;;;;;;4987751;28;20031;-82
2021/06/07 02:25:09;;;;;;;23.27;14.02;;;;;;;;;;4988408;28;20033;-83
2021/06/07 02:27:35;;;;;;;20.63;13.35;;;;;;;;;;4990491;28;20045;-80
2021/06/07 02:30:05;;;;;;;23.85;13.88;;;16.80;99.90;;;;;;4984972;28;20386;-86
2021/06/07 02:32:31;;;;;;;24.45;13.05;;;;;;;;;;4989560;28;20040;-83
2021/06/07 02:34:57;;;;;;;23.42;13.05;;;;;;;;;;4987131;28;20045;-81
2021/06/07 02:37:22;;;;;;;19.38;12.60;;;;;;;;;;4984725;28;20022;-84
2021/06/07 02:39:50;;;;;;;25.52;14.23;;;16.90;99.90;;;;;;4988324;28;20398;-82
2021/06/07 02:42:16;;;;;;;25.80;14.70;;;;;;;;;;4990558;28;20050;-83
2021/06/07 02:44:42;;;;;;;21.70;13.15;;;;;;;;;;4986754;28;20053;-83
2021/06/07 02:47:08;;;;;;;24.30;14.32;;;;;;;;;;4992078;28;20038;-82
2021/06/07 02:49:34;;;;;;;21.40;13.80;;;;;;;;;;4988965;28;20098;-83
2021/06/07 02:52:03;;;;;;;21.38;13.57;;;;;;;;;;4989829;28;20046;-83
2021/06/07 02:54:28;;;;;;;22.30;12.95;;;;;;;;;;4989453;28;20089;-84
2021/06/07 02:56:54;;;;;;;19.10;12.57;;;;;;;;;;4993469;28;20137;-82
2021/06/07 02:59:20;;;;;;;19.58;12.43;;;;;;;;;;4989952;28;20026;-83
2021/06/07 03:01:46;;;;;;;22.95;13.23;;;;;;;;;;4987957;28;20030;-83
2021/06/07 03:04:12;;;;;;;20.83;13.10;;;;;;;;;;4992578;28;20092;-80
2021/06/07 03:06:38;;;;;;;25.70;13.50;;;;;;;;;;4988307;28;20072;-81
2021/06/07 03:09:05;;;;;;;20.00;12.68;;;;;;;;;;4987388;28;20876;-83
2021/06/07 03:11:31;;;;;;;22.30;13.27;;;;;;;;;;4990092;28;20044;-85
2021/06/07 03:13:57;;;;;;;19.35;12.70;;;;;;;;;;4986405;28;20065;-81
2021/06/07 03:16:23;;;;;;;21.23;13.63;;;;;;;;;;4984924;28;21007;-84
2021/06/07 03:18:49;;;;;;;22.27;13.65;;;;;;;;;;4993301;28;20473;-84
2021/06/07 03:21:15;;;;;;;21.08;13.55;;;;;;;;;;5001592;28;20077;-82
2021/06/07 03:23:42;;;;;;;23.00;14.40;;;;;;;;;;4987877;28;20034;-83
2021/06/07 03:26:08;;;;;;;22.98;14.07;;;16.80;99.90;;;;;;4986988;28;20165;-83
2021/06/07 03:28:35;;;;;;;28.95;14.95;;;16.80;99.90;;;;;;4988255;28;20042;-83
2021/06/07 03:31:01;;;;;;;21.85;13.18;;;16.80;99.90;;;;;;4986464;28;20034;-84
2021/06/07 03:33:28;;;;;;;22.83;13.85;;;;;;;;;;4991627;28;20125;-80
2021/06/07 03:35:57;;;;;;;20.88;12.55;;;16.80;99.90;;;;;;4988255;28;20061;-84
2021/06/07 03:38:25;;;;;;;20.15;13.40;;;16.80;99.90;;;;;;4998090;28;20092;-84
2021/06/07 03:40:53;;;;;;;22.70;13.60;;;16.80;99.90;;;;;;4985790;28;20026;-83
2021/06/07 03:43:20;;;;;;;22.00;13.25;;;16.80;99.90;;;;;;4988174;28;20464;-82
2021/06/07 03:45:46;;;;;;;22.40;14.02;;;;;;;;;;4985861;28;20072;-83
2021/06/07 03:48:12;;;;;;;23.15;14.38;;;;;;;;;;4986211;28;20117;-80
2021/06/07 03:50:39;;;;;;;22.08;13.95;;;16.80;99.90;;;;;;4986698;28;20034;-83
2021/06/07 03:53:06;;;;;;;22.63;14.20;;;16.80;99.90;;;;;;4985418;28;20023;-83
2021/06/07 03:55:33;;;;;;;23.98;13.75;;;16.80;99.90;;;;;;4982256;28;20031;-82
2021/06/07 03:57:59;;;;;;;20.45;12.65;;;;;;;;;;4988040;28;21262;-83
2021/06/07 04:00:28;;;;;;;22.83;13.18;;;16.90;99.90;;;;;;4987027;28;20111;-80
2021/06/07 04:02:55;;;;;;;21.48;12.98;;;;;;;;;;4984251;28;20081;-85
2021/06/07 04:05:21;;;;;;;21.88;13.32;;;;;;;;;;4987462;28;20041;-83
2021/06/07 04:07:47;;;;;;;23.50;14.82;;;;;;;;;;4982283;28;20061;-81
2021/06/07 04:10:15;;;;;;;22.52;14.60;;;16.90;99.90;;;;;;4992126;28;20039;-82
2021/06/07 04:12:43;;;;;;;22.73;14.38;;;16.90;99.90;;;;;;4989789;28;20034;-85
2021/06/07 04:15:10;;;;;;;27.23;14.23;;;16.90;99.90;;;;;;4989544;28;20035;-83
2021/06/07 04:17:36;;;;;;;25.70;13.93;;;16.90;99.90;;;;;;4993318;28;20033;-84
2021/06/07 04:20:05;;;;;;;25.45;15.00;;;17.70;99.90;;;;;;4992023;28;20408;-84
2021/06/07 04:22:30;;;;;;;26.17;15.95;;;16.90;99.90;;;;;;4988750;28;20524;-81
2021/06/07 04:24:56;;;;;;;23.13;14.77;;;16.90;99.90;;;;;;4991532;28;20061;-82
2021/06/07 04:27:22;;;;;;;21.98;14.93;;;16.90;99.90;;;;;;4988941;28;20026;-81
2021/06/07 04:29:48;;;;;;;23.55;14.57;;;16.90;99.90;;;;;;4986206;28;20277;-83
2021/06/07 04:32:14;;;;;;;24.05;16.42;;;17.00;99.90;;;;;;4984647;28;20026;-79
2021/06/07 04:34:39;;;;;;;23.25;15.57;;;16.90;99.90;;;;;;4985133;28;20037;-80
2021/06/07 04:37:06;;;;;;;25.83;16.50;;;17.00;99.90;;;;;;4978232;28;20035;-84
2021/06/07 04:39:34;;;;;;;23.95;15.93;;;17.40;99.90;;;;;;4985467;28;20475;-80
2021/06/07 04:42:00;;;;;;;23.60;14.48;;;17.00;99.90;;;;;;4967089;28;20035;-83
2021/06/07 04:44:26;;;;;;;24.35;15.68;;;17.10;99.90;;;;;;4985069;28;20022;-83
2021/06/07 04:46:51;;;;;;;22.95;14.73;;;17.00;99.90;;;;;;4986731;28;20481;-81
2021/06/07 04:49:17;;;;;;;23.75;15.27;;;17.10;99.90;;;;;;4983998;28;20045;-83
2021/06/07 04:51:43;;;;;;;21.90;14.27;;;;;;;;;;4985878;28;20036;-79
2021/06/07 04:54:09;;;;;;;23.58;15.00;;;17.10;99.90;;;;;;4988771;28;20030;-80
2021/06/07 04:56:35;;;;;;;22.05;14.38;;;;;;;;;;4989867;28;20124;-80
2021/06/07 04:59:01;;;;;;;23.13;14.07;;;;;;;;;;4983626;28;20038;-82
2021/06/07 05:01:27;;;;;;;23.50;13.60;;;;;;;;;;4984324;28;20038;-81
2021/06/07 05:03:53;;;;;;;22.70;14.35;;;;;;;;;;4990927;28;20029;-82
2021/06/07 05:06:19;;;;;;;21.67;13.85;;;;;;;;;;4986431;28;20513;-80
2021/06/07 05:08:45;;;;;;;23.70;14.80;;;;;;;;;;4991389;28;20026;-88
2021/06/07 05:11:11;;;;;;;24.02;14.68;;;;;;;;;;4982330;28;20032;-83
2021/06/07 05:13:37;;;;;;;22.17;13.80;;;;;;;;;;4996022;28;20026;-81
2021/06/07 05:16:03;;;;;;;23.45;14.20;;;;;;;;;;4990118;28;20126;-81
2021/06/07 05:18:29;;;;;;;23.23;14.43;;;17.40;99.90;;;;;;4994694;28;20057;-83
2021/06/07 05:20:55;;;;;;;20.65;12.98;;;17.40;99.90;;;;;;4984341;28;20069;-82
2021/06/07 05:23:22;;;;;;;21.25;14.02;;;;;;;;;;4981714;28;20034;-84
2021/06/07 05:25:48;;;;;;;21.80;13.00;;;;;;;;;;4978870;28;21182;-83
2021/06/07 05:28:15;;;;;;;23.10;14.45;;;;;;;;;;4981585;28;20105;-85
2021/06/07 05:30:41;;;;;;;22.85;13.75;;;;;;;;;;4988059;28;20039;-83
2021/06/07 05:33:08;;;;;;;20.30;12.88;;;;;;;;;;4964980;28;20038;-84
2021/06/07 05:35:37;;;;;;;21.10;13.23;;;;;;;;;;4979238;28;20046;-83
2021/06/07 05:38:03;;;;;;;21.80;13.25;;;;;;;;;;5002122;28;20023;-82
2021/06/07 05:40:30;;;;;;;21.92;13.05;;;;;;;;;;4976848;28;20476;-83
2021/06/07 05:42:56;;;;;;;21.67;13.35;;;;;;;;;;4977913;28;20110;-85
2021/06/07 05:45:23;;;;;;;20.80;12.98;;;;;;;;;;4979406;28;20133;-83
2021/06/07 05:47:49;;;;;;;21.30;12.13;;;;;;;;;;4981695;28;20448;-83
2021/06/07 05:50:18;;;;;;;21.52;12.30;;;17.80;99.90;;;;;;4977820;28;20030;-86
2021/06/07 05:52:46;;;;;;;21.88;12.45;;;;;;;;;;4980990;28;20042;-83
2021/06/07 05:55:24;;;;;;;19.95;12.02;;;18.10;99.90;;;;;;4985385;28;20038;-83
2021/06/07 05:57:57;;;;;;;19.02;11.57;;;18.20;99.90;;;;;;5003326;28;20047;-85
2021/06/07 06:00:25;;;;;;;19.27;11.10;;;18.20;99.90;;;;;;4992409;28;20054;-85
2021/06/07 06:02:51;;;;;;;16.33;10.50;;;;;;;;;;4992981;28;20052;-85
2021/06/07 06:05:18;;;;;;;16.52;10.20;;;;;;;;;;4992351;28;20053;-83
2021/06/07 06:07:44;;;;;;;16.73;9.70;;;;;;;;;;4992734;28;20022;-85
2021/06/07 06:10:10;;;;;;;18.50;10.35;;;;;;;;;;4996597;28;20086;-85
2021/06/07 06:12:36;;;;;;;15.57;9.80;;;;;;;;;;4987806;28;20027;-85
2021/06/07 06:15:03;;;;;;;14.70;9.23;;;18.50;99.90;;;;;;4996678;28;20041;-86
2021/06/07 06:17:29;;;;;;;17.10;9.25;;;;;;;;;;4989189;28;20034;-84
2021/06/07 06:19:56;;;;;;;13.85;9.77;;;;;;;;;;4990402;28;20022;-85
2021/06/07 06:22:22;;;;;;;16.15;8.85;;;;;;;;;;4989716;28;20046;-84
2021/06/07 06:24:48;;;;;;;15.38;9.10;;;;;;;;;;4992034;28;20026;-84
2021/06/07 06:27:14;;;;;;;16.38;9.10;;;18.60;99.90;;;;;;4987197;28;20103;-83
2021/06/07 06:29:41;;;;;;;14.20;8.85;;;;;;;;;;4983957;28;20489;-84
2021/06/07 06:32:10;;;;;;;11.68;8.10;;;18.70;99.90;;;;;;4985510;28;20030;-85
2021/06/07 06:34:38;;;;;;;16.08;8.50;;;;;;;;;;4987357;28;20042;-84
2021/06/07 06:37:04;;;;;;;12.60;7.80;;;;;;;;;;4992192;28;20122;-84
2021/06/07 06:39:30;;;;;;;14.23;8.05;;;;;;;;;;4987953;28;22929;-85
2021/06/07 06:41:56;;;;;;;13.50;8.23;;;;;;;;;;4986688;28;20026;-83
2021/06/07 06:44:22;;;;;;;13.00;7.97;;;;;;;;;;4985578;28;20022;-85
2021/06/07 06:46:48;;;;;;;12.65;8.57;;;;;;;;;;4986097;28;20034;-85
2021/06/07 06:49:14;;;;;;;13.10;7.95;;;;;;;;;;4980498;28;20030;-83
2021/06/07 06:51:43;;;;;;;14.05;8.90;;;;;;;;;;4982977;28;20030;-82
2021/06/07 06:54:09;;;;;;;11.98;7.53;;;;;;;;;;4979451;28;20045;-85
2021/06/07 06:56:35;;;;;;;13.07;7.75;;;;;;;;;;4985908;28;20038;-82
2021/06/07 06:59:02;;;;;;;12.50;7.88;;;;;;;;;;4986407;28;20041;-82
2021/06/07 07:01:28;;;;;;;12.45;7.57;;;;;;;;;;4993499;28;20049;-83
2021/06/07 07:03:54;;;;;;;10.20;6.75;;;;;;;;;;4987954;28;20054;-83
2021/06/07 07:06:24;;;;;;;11.40;7.28;;;;;;;;;;4986983;28;20054;-81
2021/06/07 07:08:53;;;;;;;11.85;6.60;;;;;;;;;;4977911;28;20054;-84
2021/06/07 07:11:21;;;;;;;11.18;6.65;;;;;;;;;;4979703;28;20618;-83
2021/06/07 07:13:50;;;;;;;10.77;6.72;;;;;;;;;;4981417;28;20022;-87
2021/06/07 07:16:16;;;;;;;9.23;6.32;;;;;;;;;;4991915;28;20076;-84
2021/06/07 07:18:42;;;;;;;10.45;6.50;;;;;;;;;;4985987;28;20074;-83
2021/06/07 07:21:08;;;;;;;8.77;5.88;;;;;;;;;;4981252;28;20051;-82
2021/06/07 07:23:34;;;;;;;10.88;6.65;;;;;;;;;;4984313;28;20026;-84
2021/06/07 07:26:08;;;;;;;9.50;5.85;;;;;;;;;;4987663;28;20033;-84
2021/06/07 07:28:36;;;;;;;8.82;5.55;;;;;;;;;;4977095;28;20022;-82
2021/06/07 07:31:05;;;;;;;12.32;5.80;;;;;;;;;;4973712;28;20558;-82
2021/06/07 07:33:39;;;;;;;9.40;5.97;;;;;;;;;;4984266;28;20026;-82
2021/06/07 07:36:12;;;;;;;9.75;5.78;;;;;;;;;;4988809;28;20114;-81
2021/06/07 07:38:39;;;;;;;8.52;6.05;;;;;;;;;;4991991;28;20117;-80
2021/06/07 07:41:27;;;;;;;9.75;5.78;;;;;;;;;;4988006;28;20052;-83
2021/06/07 07:43:56;;;;;;;10.15;5.22;;;;;;;;;;4982641;28;20113;-85
2021/06/07 07:46:24;;;;;;;9.80;6.15;;;;;;;;;;4985762;28;20042;-80
2021/06/07 07:48:50;;;;;;;10.48;5.78;;;;;;;;;;4989053;28;20026;-82
2021/06/07 07:51:22;;;;;;;7.63;5.20;;;;;;;;;;4982739;28;20109;-83
2021/06/07 07:53:57;;;;;;;10.68;6.28;;;;;;;;;;4994997;28;20030;-85
2021/06/07 07:56:26;;;;;;;9.20;5.50;;;;;;;;;;4989484;28;20038;-84
2021/06/07 07:59:12;;;;;;;11.38;6.63;;;;;;;;;;4989057;28;20041;-84
2021/06/07 08:02:04;;;;;;;7.32;4.68;;;;;;;;;;4978052;28;20030;-83
2021/06/07 08:04:42;;;;;;;9.52;5.45;;;;;;;;;;4981859;28;20030;-81
2021/06/07 08:07:20;;;;;;;7.63;5.35;;;;;;;;;;4997084;28;20030;-85
2021/06/07 08:09:49;;;;;;;8.68;5.68;;;;;;;;;;4982432;28;20038;-83
2021/06/07 08:12:21;;;;;;;8.13;5.00;;;;;;;;;;4985499;28;20033;-80
2021/06/07 08:14:47;;;;;;;7.28;5.15;;;;;;;;;;4979102;28;20177;-80
2021/06/07 08:17:18;;;;;;;7.57;4.75;;;;;;;;;;4980334;28;20057;-84
2021/06/07 08:19:46;;;;;;;8.55;4.88;;;;;;;;;;4985593;28;20037;-83
2021/06/07 08:22:24;;;;;;;8.98;4.95;;;;;;;;;;4982112;28;20940;-81
2021/06/07 08:25:12;;;;;;;6.50;4.20;;;;;;;;;;4986582;28;20034;-85
2021/06/07 08:28:01;;;;;;;6.85;4.57;;;;;;;;;;4990858;28;20023;-83
2021/06/07 08:30:34;;;;;;;5.50;3.90;;;;;;;;;;4985035;28;20560;-83
2021/06/07 08:33:17;;;;;;;6.63;4.50;;;;;;;;;;4983642;28;20039;-83
2021/06/07 08:36:01;;;;;;;6.75;4.30;;;;;;;;;;4978917;28;20058;-83
2021/06/07 08:39:10;;;;;;;;;;;;;;;;;;;;;
2021/06/07 08:42:04;;;;;;;;;;;;;;;;;;;;;
2021/06/07 08:56:50;;;;;;;6.40;3.28;;;;;;;;;;4986125;28;20053;-85
2021/06/07 09:00:01;;;;;;;;;;;;;;;;;;;;;
2021/06/07 09:03:00;;;;;;;;;;;;;;;;;;;;;
2021/06/07 09:05:53;;;;;;;5.70;3.27;;;;;;;;;;4983968;28;20040;-84
2021/06/07 09:12:21;;;;;;;;;;;;;;;;;;;;;
2021/06/07 09:15:26;;;;;;;;;;;;;;;;;;;;;
2021/06/07 09:18:27;;;;;;;5.20;3.00;;;;;;;;;;4970291;28;20117;-82
2021/06/07 09:21:12;;;;;;;;;;;;;;;;;;;;;
2021/06/07 09:27:20;;;;;;;;;;;;;;;;;;;;;
2021/06/07 09:30:00;;;;;;;5.00;2.83;;;;;;;;;;4979854;28;20045;-82
2021/06/07 09:32:26;;;;;;;3.50;2.63;;;;;;;;;;4987716;28;20038;-82
2021/06/07 09:45:06;;;;;;;3.70;2.67;;;21.30;97.40;;;;;;4927219;29;20066;-83
2021/06/07 09:47:34;;;;;;;5.15;2.72;;;;;;;;;;4914145;29;20039;-82
2021/06/07 09:50:03;;;;;;;4.95;3.25;;;;;;;;;;4923052;29;20506;-80
2021/06/07 09:52:34;;;;;;;4.75;3.20;;;;;;;;;;4957191;28;20493;-80
2021/06/07 09:55:00;;;;;;;5.68;3.45;;;;;;;;;;4983132;28;20090;-83
2021/06/07 09:57:43;;;;;;;4.20;3.30;;;;;;;;;;4990923;28;20057;-82
2021/06/07 10:00:09;;;;;;;5.13;3.47;;;;;;;;;;4979975;28;20080;-83
2021/06/07 10:02:36;;;;;;;5.18;3.45;;;20.60;98.50;;;;;;4990624;28;20034;-80
2021/06/07 10:05:02;;;;;;;5.72;3.40;;;;;;;;;;4984462;28;20031;-83
2021/06/07 10:07:28;;;;;;;5.47;3.58;;;;;;;;;;5000245;28;20027;-83
2021/06/07 10:10:20;;;;;;;4.75;3.28;;;20.50;98.90;;;;;;4987975;28;20503;-83
2021/06/07 10:12:46;;;;;;;5.47;3.92;;;20.60;98.60;;;;;;4987757;28;20085;-82
2021/06/07 10:15:29;;;;;;;4.93;3.17;;;20.60;98.80;;;;;;4971954;28;20098;-82
2021/06/07 10:17:54;;;;;;;6.22;3.33;;;;;;;;;;4990932;28;20053;-83
2021/06/07 10:22:46;;;;;;;3.80;2.85;;;;;;;;;;4989301;28;20034;-83
2021/06/07 10:25:13;;;;;;;4.05;3.10;;;;;;;;;;4991701;28;20374;-84
2021/06/07 10:27:39;;;;;;;4.63;3.15;;;;;;;;;;4988170;28;20022;-81
2021/06/07 10:30:18;;;;;;;4.55;3.05;;;21.60;97.20;;;;;;4985121;28;20046;-84
2021/06/07 10:32:44;;;;;;;4.65;3.08;;;;;;;;;;4993304;28;20270;-81
2021/06/07 10:35:11;;;;;;;5.03;3.67;;;;;;;;;;4989113;28;20093;-81
2021/06/07 10:37:57;;;;;;;5.75;3.55;;;22.00;96.20;;;;;;4990026;28;20022;-82
2021/06/07 10:40:25;;;;;;;4.60;3.28;;;21.90;95.50;;;;;;4983224;28;20038;-80
2021/06/07 10:43:04;;;;;;;4.97;2.97;;;21.80;99.40;;;;;;4982656;28;22069;-82
2021/06/07 10:45:32;;;;;;;6.90;4.37;;;21.80;96.10;;;;;;4983274;28;20026;-82
2021/06/07 10:48:00;;;;;;;4.38;3.00;;;21.70;96.30;;;;;;4967444;28;20042;-81
2021/06/07 10:50:35;;;;;;;4.95;3.13;;;;;;;;;;4986173;28;20080;-81
2021/06/07 10:53:04;;;;;;;5.28;3.28;;;21.40;96.80;;;;;;4987843;28;20368;-81
2021/06/07 10:55:35;;;;;;;9.23;4.55;;;21.20;97.10;;;;;;5009786;28;20026;-83
2021/06/07 10:58:06;;;;;;;5.05;3.58;;;21.20;97.40;;;;;;5004960;28;20074;-79
2021/06/07 11:00:40;;;;;;;4.53;3.08;;;21.20;97.30;;;;;;4998127;28;20057;-80
2021/06/07 11:03:20;;;;;;;5.00;2.92;;;;;;;;;;4990052;28;20057;-81
2021/06/07 11:05:47;;;;;;;6.28;2.95;;;21.20;97.10;;;;;;4986404;28;20026;-82
2021/06/07 11:08:16;;;;;;;4.38;2.72;;;21.20;97.00;;;;;;4986284;28;20038;-84
2021/06/07 11:10:47;;;;;;;4.70;3.20;;;21.10;96.90;;;;;;4984960;28;20069;-83
2021/06/07 11:13:13;;;;;;;4.38;2.92;;;;;;;;;;4986492;28;20034;-81
2021/06/07 11:15:42;;;;;;;5.32;2.78;;;;;;;;;;4983301;28;20048;-82
2021/06/07 11:18:38;;;;;;;6.20;3.25;;;21.00;97.10;;;;;;4987268;28;20053;-84
2021/06/07 11:21:06;;;;;;;4.63;3.00;;;21.50;97.50;;;;;;4977290;28;20088;-82
2021/06/07 11:23:44;;;;;;;6.05;3.30;;;21.10;97.40;;;;;;4981940;28;20757;-82
2021/06/07 11:26:12;;;;;;;4.90;3.10;;;21.00;97.30;;;;;;4979144;28;20182;-84
2021/06/07 11:28:48;;;;;;;4.72;3.40;;;21.10;97.20;;;;;;4982243;28;20030;-84
2021/06/07 11:31:20;;;;;;;4.90;3.45;;;;;;;;;;4976048;28;20030;-82
2021/06/07 11:33:57;;;;;;;4.13;3.00;;;21.20;97.00;;;;;;4986003;28;20030;-81
2021/06/07 11:36:38;;;;;;;5.40;3.10;;;21.20;97.10;;;;;;4986597;28;20027;-81
2021/06/07 11:39:07;;;;;;;9.00;5.35;;;21.10;97.00;;;;;;4990246;28;20128;-84
2021/06/07 11:41:45;;;;;;;4.82;3.47;;;;;;;;;;4993744;28;20022;-81
2021/06/07 11:44:12;;;;;;;4.28;2.83;;;21.00;97.30;;;;;;4983254;28;20034;-81
2021/06/07 11:46:38;;;;;;;4.00;2.72;;;;;;;;;;4984293;28;20034;-82
2021/06/07 11:49:12;;;;;;;5.65;3.05;;;21.20;97.20;;;;;;4984060;28;20026;-83
2021/06/07 11:51:38;;;;;;;5.00;3.30;;;;;;;;;;4978079;28;20401;-83
2021/06/07 11:54:26;;;;;;;4.03;3.05;;;21.10;96.90;;;;;;4980295;28;20428;-80
2021/06/07 11:57:04;;;;;;;5.18;3.20;;;21.10;97.00;;;;;;4976123;28;20030;-81
2021/06/07 11:59:38;;;;;;;5.35;3.13;;;21.10;97.10;;;;;;4981180;28;20468;-80
2021/06/07 12:02:13;;;;;;;4.43;2.83;;;21.30;96.60;;;;;;4974544;28;20033;-82
2021/06/07 12:04:40;;;;;;;4.88;2.65;;;21.60;96.30;;;;;;4983457;28;20026;-81
2021/06/07 12:07:08;;;;;;;5.15;2.53;;;;;;;;;;4992603;28;20058;-80
2021/06/07 12:09:39;;;;;;;4.57;2.80;;;;;;;;;;4990426;28;20064;-82
2021/06/07 12:12:06;;;;;;;4.55;2.90;;;22.00;95.10;;;;;;4971552;28;20034;-82
2021/06/07 12:14:39;;;;;;;4.00;3.03;;;22.30;95.10;;;;;;4965437;28;21137;-83
2021/06/07 12:17:20;;;;;;;3.45;2.20;;;22.50;99.30;;;;;;4975869;28;20109;-82
2021/06/07 12:20:00;;;;;;;3.00;2.40;;;22.50;94.50;;;;;;4979592;28;20034;-83
2021/06/07 12:22:26;;;;;;;4.18;2.47;;;;;;;;;;4978232;28;20122;-83
2021/06/07 12:30:42;;;;;;;4.13;2.67;;;;;;;;;;4981769;28;20504;-84
2021/06/07 12:33:08;;;;;;;3.42;2.67;;;22.40;94.20;;;;;;4980617;28;20045;-82
2021/06/07 12:35:37;;;;;;;3.47;2.50;;;22.20;94.30;;;;;;4984183;28;20034;-82
2021/06/07 12:38:10;;;;;;;4.53;2.70;;;22.10;94.50;;;;;;4974939;28;20038;-81
2021/06/07 12:40:57;;;;;;;5.25;2.40;;;22.00;94.60;;;;;;4986008;28;20053;-81
2021/06/07 12:43:26;;;;;;;4.82;2.92;;;21.90;95.00;;;;;;4987289;28;20026;-83
2021/06/07 12:45:54;;;;;;;4.20;2.97;;;;;;;;;;4986699;28;20053;-82
2021/06/07 12:48:21;;;;;;;4.90;2.70;;;21.80;95.40;;;;;;4989411;28;20037;-86
2021/06/07 12:50:51;;;;;;;4.47;2.67;;;21.80;95.50;;;;;;4985813;28;20018;-82
2021/06/07 12:53:19;;;;;;;4.28;3.35;;;21.70;95.50;;;;;;4999973;28;20031;-82
2021/06/07 12:55:47;;;;;;;4.90;2.80;;;21.70;95.50;;;;;;4983586;28;20037;-82
2021/06/07 12:58:15;;;;;;;81.20;36.65;;;21.60;95.70;;;;;;4983211;28;20112;-82
2021/06/07 13:00:43;;;;;;;5.13;3.17;;;21.60;95.70;;;;;;4977834;28;20110;-83
2021/06/07 13:03:30;;;;;;;3.65;2.72;;;21.60;95.90;;;;;;4996653;28;20022;-83
2021/06/07 13:06:13;;;;;;;5.15;3.30;;;21.60;96.00;;;;;;4984169;28;20038;-84
2021/06/07 13:08:54;;;;;;;6.15;3.50;;;21.50;96.30;;;;;;4986371;28;20520;-83
2021/06/07 13:11:38;;;;;;;5.68;2.90;;;21.60;96.30;;;;;;4978161;28;20031;-84
2021/06/07 13:14:17;;;;;;;4.18;2.78;;;21.60;96.00;;;;;;4978672;28;20481;-81
2021/06/07 13:16:43;;;;;;;4.05;2.60;;;;;;;;;;4983478;28;20034;-82
2021/06/07 13:19:10;;;;;;;3.92;2.55;;;21.70;95.60;;;;;;4976924;28;20038;-84
2021/06/07 13:21:38;;;;;;;4.75;2.88;;;21.80;95.20;;;;;;4985470;28;20037;-80
2021/06/07 13:24:06;;;;;;;5.22;2.55;;;21.80;95.30;;;;;;4982565;28;20035;-81
2021/06/07 13:26:36;;;;;;;4.85;3.00;;;;;;;;;;4983067;28;20448;-82
2021/06/07 13:29:11;;;;;;;;;;;21.90;95.70;;;;;;4979294;28;20030;-80
2021/06/07 13:31:59;;;;;;;3.78;2.60;;;22.10;95.10;;;;;;4977710;28;20379;-84
2021/06/07 13:34:44;;;;;;;4.55;2.50;;;22.20;94.80;;;;;;4985170;28;20022;-82
2021/06/07 13:37:10;;;;;;;7.28;4.07;;;;;;;;;;4980593;28;20035;-81
2021/06/07 13:39:37;;;;;;;4.15;2.90;;;;;;;;;;4984826;28;20030;-81
2021/06/07 13:42:03;;;;;;;4.25;2.70;;;;;;;;;;4978385;28;20041;-81
2021/06/07 13:44:47;;;;;;;4.60;3.03;;;22.30;94.50;;;;;;4986062;28;20027;-82
2021/06/07 13:47:25;;;;;;;5.03;2.50;;;22.30;94.50;;;;;;4985077;28;20026;-83
2021/06/07 13:50:17;;;;;;;3.15;2.25;;;22.30;94.50;;;;;;4986166;28;20058;-82
2021/06/07 13:52:55;;;;;;;4.10;2.40;;;22.40;94.40;;;;;;4986976;28;20120;-81
2021/06/07 13:55:25;;;;;;;3.53;2.40;;;;;;;;;;4985133;28;20026;-83
2021/06/07 13:58:06;;;;;;;3.05;2.05;;;22.40;93.90;;;;;;4985101;28;20097;-83
2021/06/07 14:00:39;;;;;;;5.15;2.92;;;22.40;93.70;;;;;;4984780;28;20689;-83
2021/06/07 14:03:12;;;;;;;4.25;2.83;;;22.20;93.80;;;;;;4981413;28;20030;-85
2021/06/07 14:05:38;;;;;;;3.47;2.20;;;;;;;;;;4984118;28;20099;-81
2021/06/07 14:08:06;;;;;;;5.10;2.83;;;22.10;93.90;;;;;;5005082;28;20409;-83
2021/06/07 14:10:32;;;;;;;3.65;2.78;;;;;;;;;;4975952;28;20057;-83
2021/06/07 14:12:58;;;;;;;4.32;2.75;;;;;;;;;;4984538;28;20473;-84
2021/06/07 14:15:24;;;;;;;5.68;3.45;;;;;;;;;;4983434;28;20038;-84
2021/06/07 14:17:50;;;;;;;4.53;3.13;;;;;;;;;;4986206;28;20037;-83
2021/06/07 14:20:16;;;;;;;6.53;3.45;;;;;;;;;;4979008;28;20030;-83
2021/06/07 14:25:38;;;;;;;4.90;2.95;;;;;;;;;;4987650;28;20185;-85
2021/06/07 14:28:09;;;;;;;4.25;2.75;;;;;;;;;;4987606;28;20042;-83
2021/06/07 14:30:36;;;;;;;3.28;2.50;;;;;;;;;;4982806;28;20039;-82
2021/06/07 14:33:02;;;;;;;4.88;2.88;;;;;;;;;;4982059;28;20165;-83
2021/06/07 14:35:32;;;;;;;4.95;3.42;;;;;;;;;;4984834;28;20114;-79
2021/06/07 14:38:03;;;;;;;4.47;2.75;;;22.00;94.90;;;;;;4982423;28;20084;-84
2021/06/07 14:40:29;;;;;;;5.63;2.65;;;;;;;;;;4980496;28;20031;-85
2021/06/07 14:42:55;;;;;;;4.18;2.60;;;;;;;;;;4981272;28;20033;-82
2021/06/07 14:45:24;;;;;;;4.15;3.00;;;;;;;;;;4985323;28;20019;-83
2021/06/07 14:47:51;;;;;;;3.97;2.83;;;;;;;;;;4986364;28;20447;-79